Time;durP1;ratioP1;P1;durP2;ratioP2;P2;SDS_P1;SDS_P2;PMS_P1;PMS_P2;Temp;Humidity;BMP_temperature;BMP_pressure;BME280_temperature;BME280_humidity;BME280_pressure;Samples;Min_cycle;Max_cycle;Signal;HPM_P1;HPM_P2
2023/08/23 00:00:54;;;;;;;8.07;6.18;;;;;;;-147.16;100.00;58666.56;7394464;19;20074;-66
2023/08/23 00:03:23;;;;;;;9.35;5.47;;;;;;;-147.16;100.00;58666.56;7392369;19;20078;-66
2023/08/23 00:05:51;;;;;;;7.68;5.97;;;;;;;-147.16;100.00;58666.56;7392449;19;20014;-65
2023/08/23 00:08:20;;;;;;;8.85;5.88;;;;;;;-147.16;100.00;58666.56;7392474;19;20032;-66
2023/08/23 00:10:58;;;;;;;6.90;6.20;;;;;;;-147.16;100.00;58666.56;7394195;19;20094;-66
2023/08/23 00:13:32;;;;;;;6.18;5.38;;;;;;;-147.16;100.00;58666.56;7392351;19;20014;-66
2023/08/23 00:16:00;;;;;;;8.35;6.00;;;;;;;-147.16;100.00;58666.56;7393811;19;20070;-67
2023/08/23 00:18:29;;;;;;;7.60;5.70;;;;;;;-147.16;100.00;58666.56;7392005;19;20032;-66
2023/08/23 00:20:57;;;;;;;7.05;5.20;;;;;;;-147.16;100.00;58666.56;7393983;19;20015;-67
2023/08/23 00:23:26;;;;;;;10.35;6.28;;;;;;;-147.16;100.00;58666.56;7391763;19;20417;-67
2023/08/23 00:25:54;;;;;;;7.82;5.80;;;;;;;-147.16;100.00;58666.56;7391731;19;20018;-67
2023/08/23 00:28:25;;;;;;;8.07;5.78;;;;;;;-147.16;100.00;58666.56;7393798;19;20156;-66
2023/08/23 00:30:54;;;;;;;6.45;5.45;;;;;;;-147.16;100.00;58666.56;7393429;19;20015;-67
2023/08/23 00:33:23;;;;;;;7.00;5.32;;;;;;;-147.16;100.00;58666.56;7391421;19;20074;-67
2023/08/23 00:35:52;;;;;;;7.75;6.00;;;;;;;-147.16;100.00;58666.56;7391300;19;20417;-67
2023/08/23 00:38:20;;;;;;;6.28;5.68;;;;;;;-147.16;100.00;58666.56;7391437;19;20078;-67
2023/08/23 00:40:49;;;;;;;10.38;6.25;;;;;;;-147.16;100.00;58666.56;7396109;19;20014;-66
2023/08/23 00:43:17;;;;;;;10.10;5.80;;;;;;;-147.16;100.00;58666.56;7399694;19;20439;-67
2023/08/23 00:45:48;;;;;;;7.53;5.80;;;;;;;-147.16;100.00;58666.56;7400344;19;20525;-67
2023/08/23 00:48:17;;;;;;;8.95;6.05;;;;;;;-147.16;100.00;58666.56;7400703;19;20078;-66
2023/08/23 00:50:46;;;;;;;8.65;5.80;;;;;;;-147.16;100.00;58666.56;7400306;19;20514;-66
2023/08/23 00:53:17;;;;;;;9.13;5.60;;;;;;;-147.16;100.00;58666.56;7397930;19;20010;-72
2023/08/23 00:55:46;;;;;;;10.73;5.93;;;;;;;-147.16;100.00;58666.56;7400023;19;20458;-67
2023/08/23 00:58:15;;;;;;;9.13;6.13;;;;;;;-147.16;100.00;58666.56;7400324;19;20066;-69
2023/08/23 01:00:44;;;;;;;10.13;6.15;;;;;;;-147.16;100.00;58666.56;7400994;19;20074;-68
2023/08/23 01:03:15;;;;;;;13.52;7.18;;;;;;;-147.16;100.00;58666.56;7399227;19;20031;-67
2023/08/23 01:05:53;;;;;;;8.57;6.10;;;;;;;-147.16;100.00;58666.56;7398025;19;20018;-67
2023/08/23 01:08:31;;;;;;;6.85;5.35;;;;;;;-147.16;100.00;58666.56;7400320;19;20006;-67
2023/08/23 01:11:10;;;;;;;7.78;5.97;;;;;;;-147.16;100.00;58666.56;7399596;19;20101;-67
2023/08/23 01:13:45;;;;;;;10.07;6.30;;;;;;;-147.16;100.00;58666.56;7399383;19;20021;-65
2023/08/23 01:16:15;;;;;;;10.10;7.40;;;;;;;-147.16;100.00;58666.56;7399596;19;20015;-66
2023/08/23 01:18:47;;;;;;;8.73;6.05;;;;;;;-147.16;100.00;58666.56;7399186;19;20421;-65
2023/08/23 01:21:21;;;;;;;9.13;6.53;;;;;;;-147.16;100.00;58666.56;7399432;19;20411;-66
2023/08/23 01:23:53;;;;;;;8.90;6.18;;;;;;;-147.16;100.00;58666.56;7398192;19;20075;-66
2023/08/23 01:26:21;;;;;;;7.72;6.07;;;;;;;-147.16;100.00;58666.56;7399054;19;20078;-66
2023/08/23 01:28:51;;;;;;;6.97;6.22;;;;;;;-147.16;100.00;58666.56;7398842;19;20537;-66
2023/08/23 01:31:23;;;;;;;7.20;6.50;;;;;;;-147.16;100.00;58666.56;7399202;19;20031;-66
2023/08/23 01:33:57;;;;;;;8.32;6.28;;;;;;;-147.16;100.00;58666.56;7397155;19;20418;-66
2023/08/23 01:36:34;;;;;;;10.98;6.65;;;;;;;-147.16;100.00;58666.56;7396672;19;20097;-66
2023/08/23 01:39:07;;;;;;;8.32;6.20;;;;;;;-147.16;100.00;58666.56;7396337;19;20067;-66
2023/08/23 01:41:37;;;;;;;15.05;7.30;;;;;;;-147.16;100.00;58666.56;7397128;19;20022;-66
2023/08/23 01:44:06;;;;;;;11.73;7.43;;;;;;;-147.16;100.00;58666.56;7397124;19;20365;-66
2023/08/23 01:46:37;;;;;;;10.38;6.68;;;;;;;-147.16;100.00;58666.56;7396428;19;20014;-66
2023/08/23 01:49:05;;;;;;;8.07;7.10;;;;;;;-147.16;100.00;58666.56;7399002;19;20406;-66
2023/08/23 01:51:34;;;;;;;6.43;5.60;;;;;;;-147.16;100.00;58666.56;7397085;19;20014;-66
2023/08/23 01:54:05;;;;;;;11.45;6.93;;;;;;;-147.16;100.00;58666.56;7395614;19;20017;-66
2023/08/23 01:56:33;;;;;;;9.57;6.65;;;;;;;-147.16;100.00;58666.56;7396313;19;20073;-66
2023/08/23 01:59:02;;;;;;;9.25;6.78;;;;;;;-147.16;100.00;58666.56;7396192;19;20070;-66
2023/08/23 02:01:31;;;;;;;8.25;6.65;;;;;;;-147.16;100.00;58666.56;7397773;19;20013;-66
2023/08/23 02:04:00;;;;;;;8.23;6.30;;;;;;;-147.16;100.00;58666.56;7396608;19;20015;-66
2023/08/23 02:06:28;;;;;;;8.98;6.43;;;;;;;-147.16;100.00;58666.56;7397965;19;20031;-66
2023/08/23 02:08:56;;;;;;;11.30;6.50;;;;;;;-147.16;100.00;58666.56;7397831;19;20078;-66
2023/08/23 02:11:27;;;;;;;8.23;6.43;;;;;;;-147.16;100.00;58666.56;7397753;19;20376;-66
2023/08/23 02:13:56;;;;;;;7.25;6.32;;;;;;;-147.16;100.00;58666.56;7396783;19;20025;-67
2023/08/23 02:16:24;;;;;;;9.93;6.43;;;;;;;-147.16;100.00;58666.56;7397303;19;20553;-66
2023/08/23 02:18:53;;;;;;;8.25;6.68;;;;;;;-147.16;100.00;58666.56;7398833;19;20027;-66
2023/08/23 02:21:21;;;;;;;8.80;6.90;;;;;;;-147.16;100.00;58666.56;7397288;19;20028;-66
2023/08/23 02:23:49;;;;;;;10.00;6.60;;;;;;;-147.16;100.00;58666.56;7395048;19;20078;-66
2023/08/23 02:26:18;;;;;;;9.93;6.50;;;;;;;-147.16;100.00;58666.56;7397340;19;20074;-66
2023/08/23 02:28:49;;;;;;;10.82;7.00;;;;;;;-147.16;100.00;58666.56;7395323;19;20018;-66
2023/08/23 02:31:17;;;;;;;11.75;6.88;;;;;;;-147.16;100.00;58666.56;7397615;19;20059;-66
2023/08/23 02:33:46;;;;;;;8.73;6.10;;;;;;;-147.16;100.00;58666.56;7395627;19;20378;-66
2023/08/23 02:36:21;;;;;;;8.57;6.22;;;;;;;-147.16;100.00;58666.56;7394389;19;20018;-66
2023/08/23 02:38:57;;;;;;;8.55;6.50;;;;;;;-147.16;100.00;58666.56;7397375;19;20082;-66
2023/08/23 02:41:25;;;;;;;9.07;6.53;;;;;;;-147.16;100.00;58666.56;7396840;19;20026;-66
2023/08/23 02:43:56;;;;;;;10.05;6.90;;;;;;;-147.16;100.00;58666.56;7395621;19;20028;-66
2023/08/23 02:46:25;;;;;;;10.75;6.75;;;;;;;-147.16;100.00;58666.56;7396397;19;20009;-66
2023/08/23 02:48:53;;;;;;;10.90;6.72;;;;;;;-147.16;100.00;58666.56;7395061;19;20070;-66
2023/08/23 02:51:21;;;;;;;6.55;5.70;;;;;;;-147.16;100.00;58666.56;7396609;19;20018;-66
2023/08/23 02:53:50;;;;;;;7.43;6.03;;;;;;;-147.16;100.00;58666.56;7394908;19;20557;-66
2023/08/23 02:56:18;;;;;;;9.20;6.43;;;;;;;-147.16;100.00;58666.56;7394635;19;20031;-66
2023/08/23 02:58:47;;;;;;;8.98;6.72;;;;;;;-147.16;100.00;58666.56;7394556;19;20082;-66
2023/08/23 03:01:18;;;;;;;7.13;6.40;;;;;;;-147.16;100.00;58666.56;7395903;19;20075;-66
2023/08/23 03:03:47;;;;;;;8.82;6.15;;;;;;;-147.16;100.00;58666.56;7393991;19;20074;-66
2023/08/23 03:06:15;;;;;;;7.72;6.20;;;;;;;-147.16;100.00;58666.56;7395904;19;20421;-66
2023/08/23 03:08:44;;;;;;;9.43;6.40;;;;;;;-147.16;100.00;58666.56;7395576;19;20029;-66
2023/08/23 03:11:12;;;;;;;9.90;6.68;;;;;;;-147.16;100.00;58666.56;7395610;19;20028;-66
2023/08/23 03:13:41;;;;;;;8.65;6.18;;;;;;;-147.16;100.00;58666.56;7394254;19;20569;-66
2023/08/23 03:16:09;;;;;;;8.13;6.30;;;;;;;-147.16;100.00;58666.56;7393772;19;20082;-66
2023/08/23 03:18:40;;;;;;;9.35;6.60;;;;;;;-147.16;100.00;58666.56;7393808;19;20066;-66
2023/08/23 03:21:09;;;;;;;7.97;6.13;;;;;;;-147.16;100.00;58666.56;7396086;19;20082;-66
2023/08/23 03:23:37;;;;;;;9.30;6.70;;;;;;;-147.16;100.00;58666.56;7394536;19;20014;-65
2023/08/23 03:26:06;;;;;;;8.55;6.47;;;;;;;-147.16;100.00;58666.56;7395184;19;20029;-65
2023/08/23 03:28:34;;;;;;;8.00;6.32;;;;;;;-147.16;100.00;58666.56;7395299;19;20018;-65
2023/08/23 03:31:06;;;;;;;6.97;6.13;;;;;;;-147.16;100.00;58666.56;7395109;19;20011;-65
2023/08/23 03:33:35;;;;;;;7.95;6.07;;;;;;;-147.16;100.00;58666.56;7394024;19;20070;-65
2023/08/23 03:36:06;;;;;;;8.93;6.65;;;;;;;-147.16;100.00;58666.56;7392504;19;20415;-66
2023/08/23 03:38:35;;;;;;;12.55;7.55;;;;;;;-147.16;100.00;58666.56;7392972;19;20070;-66
2023/08/23 03:41:03;;;;;;;8.48;6.55;;;;;;;-147.16;100.00;58666.56;7392518;19;20490;-66
2023/08/23 03:43:31;;;;;;;10.30;7.20;;;;;;;-147.16;100.00;58666.56;7393613;19;20074;-66
2023/08/23 03:46:00;;;;;;;9.07;7.45;;;;;;;-147.16;100.00;58666.56;7392997;19;20031;-66
2023/08/23 03:48:28;;;;;;;8.77;6.75;;;;;;;-147.16;100.00;58666.56;7393015;19;20018;-65
2023/08/23 03:51:00;;;;;;;8.73;6.97;;;;;;;-147.16;100.00;58666.56;7393124;19;20006;-66
2023/08/23 03:53:31;;;;;;;10.60;7.22;;;;;;;-147.16;100.00;58666.56;7394265;19;20360;-66
2023/08/23 03:56:00;;;;;;;9.27;6.65;;;;;;;-147.16;100.00;58666.56;7395179;19;20021;-66
2023/08/23 03:58:28;;;;;;;14.25;7.43;;;;;;;-147.16;100.00;58666.56;7393027;19;20015;-67
2023/08/23 04:00:57;;;;;;;11.65;7.65;;;;;;;-147.16;100.00;58666.56;7392878;19;20032;-65
2023/08/23 04:03:25;;;;;;;7.53;6.43;;;;;;;-147.16;100.00;58666.56;7393313;19;20015;-66
2023/08/23 04:05:54;;;;;;;8.25;7.45;;;;;;;-147.16;100.00;58666.56;7393935;19;20027;-65
2023/08/23 04:08:22;;;;;;;9.05;7.22;;;;;;;-147.16;100.00;58666.56;7393928;19;20014;-65
2023/08/23 04:10:54;;;;;;;9.80;7.78;;;;;;;-147.16;100.00;58666.56;7391593;19;20486;-65
2023/08/23 04:13:22;;;;;;;11.00;7.53;;;;;;;-147.16;100.00;58666.56;7393475;19;20086;-66
2023/08/23 04:15:55;;;;;;;11.45;7.80;;;;;;;-147.16;100.00;58666.56;7397960;19;20074;-66
2023/08/23 04:18:24;;;;;;;9.68;7.80;;;;;;;-147.16;100.00;58666.56;7400049;19;20018;-66
2023/08/23 04:21:00;;;;;;;10.27;7.93;;;;;;;-147.16;100.00;58666.56;7398489;19;20130;-66
2023/08/23 04:23:29;;;;;;;14.35;8.38;;;;;;;-147.16;100.00;58666.56;7399806;19;20070;-66
2023/08/23 04:26:00;;;;;;;10.73;8.50;;;;;;;-147.16;100.00;58666.56;7401299;19;20014;-66
2023/08/23 04:28:29;;;;;;;13.45;8.25;;;;;;;-147.16;100.00;58666.56;7400135;19;20418;-66
2023/08/23 04:31:02;;;;;;;8.50;7.20;;;;;;;-147.16;100.00;58666.56;7400521;19;20028;-65
2023/08/23 04:33:30;;;;;;;14.48;8.25;;;;;;;-147.16;100.00;58666.56;7399176;19;20529;-66
2023/08/23 04:35:59;;;;;;;11.93;8.55;;;;;;;-147.16;100.00;58666.56;7397068;19;20494;-66
2023/08/23 04:38:27;;;;;;;12.75;7.80;;;;;;;-147.16;100.00;58666.56;7398822;19;20370;-66
2023/08/23 04:41:04;;;;;;;12.85;8.55;;;;;;;-147.16;100.00;58666.56;7399792;19;20086;-66
2023/08/23 04:43:33;;;;;;;14.80;7.90;;;;;;;-147.16;100.00;58666.56;7397710;19;20011;-66
2023/08/23 04:46:01;;;;;;;13.25;8.02;;;;;;;-147.16;100.00;58666.56;7397703;19;20015;-66
2023/08/23 04:48:30;;;;;;;8.95;7.80;;;;;;;-147.16;100.00;58666.56;7397771;19;20082;-66
2023/08/23 04:51:00;;;;;;;12.95;7.35;;;;;;;-147.16;100.00;58666.56;7397716;19;20031;-66
2023/08/23 04:53:29;;;;;;;12.43;8.23;;;;;;;-147.16;100.00;58666.56;7396916;19;20385;-66
2023/08/23 04:55:59;;;;;;;8.95;7.22;;;;;;;-147.16;100.00;58666.56;7400232;19;20019;-66
2023/08/23 04:58:32;;;;;;;15.55;7.82;;;;;;;-147.16;100.00;58666.56;7399051;19;20019;-67
2023/08/23 05:01:03;;;;;;;13.00;7.95;;;;;;;-147.16;100.00;58666.56;7400609;19;20097;-66
2023/08/23 05:03:32;;;;;;;11.35;7.15;;;;;;;-147.16;100.00;58666.56;7397519;19;20324;-66
2023/08/23 05:06:01;;;;;;;8.15;6.68;;;;;;;-147.16;100.00;58666.56;7396679;19;20020;-66
2023/08/23 05:08:30;;;;;;;9.48;7.07;;;;;;;-147.16;100.00;58666.56;7397143;19;20018;-66
2023/08/23 05:10:59;;;;;;;11.60;7.25;;;;;;;-147.16;100.00;58666.56;7399089;19;20023;-66
2023/08/23 05:13:31;;;;;;;13.52;8.65;;;;;;;-147.16;100.00;58666.56;7397967;19;20021;-66
2023/08/23 05:16:00;;;;;;;12.02;7.50;;;;;;;-147.16;100.00;58666.56;7399987;19;20028;-66
2023/08/23 05:18:28;;;;;;;12.63;7.88;;;;;;;-147.16;100.00;58666.56;7398081;19;20015;-65
2023/08/23 05:20:57;;;;;;;8.73;7.00;;;;;;;-147.16;100.00;58666.56;7399111;19;20063;-65
2023/08/23 05:23:26;;;;;;;10.27;6.97;;;;;;;-147.16;100.00;58666.56;7397554;19;20010;-65
2023/08/23 05:25:56;;;;;;;12.27;6.95;;;;;;;-147.16;100.00;58666.56;7398218;19;20427;-65
2023/08/23 05:28:24;;;;;;;8.43;6.88;;;;;;;-147.16;100.00;58666.56;7398513;19;20429;-65
2023/08/23 05:30:56;;;;;;;12.68;7.15;;;;;;;-147.16;100.00;58666.56;7398611;19;20024;-65
2023/08/23 05:33:24;;;;;;;9.90;6.13;;;;;;;-147.16;100.00;58666.56;7398096;19;20074;-66
2023/08/23 05:35:53;;;;;;;9.73;6.60;;;;;;;-147.16;100.00;58666.56;7395852;19;20489;-65
2023/08/23 05:38:23;;;;;;;8.73;6.70;;;;;;;-147.16;100.00;58666.56;7397521;19;20074;-65
2023/08/23 05:40:51;;;;;;;12.18;6.35;;;;;;;-147.16;100.00;58666.56;7398588;19;20033;-65
2023/08/23 05:43:20;;;;;;;7.80;6.03;;;;;;;-147.16;100.00;58666.56;7395701;19;20018;-65
2023/08/23 05:45:50;;;;;;;8.05;5.93;;;;;;;-147.16;100.00;58666.56;7397603;19;20013;-65
2023/08/23 05:48:21;;;;;;;7.88;6.10;;;;;;;-147.16;100.00;58666.56;7398128;19;20010;-65
2023/08/23 05:50:50;;;;;;;7.43;5.65;;;;;;;-147.16;100.00;58666.56;7396581;19;20019;-65
2023/08/23 05:53:21;;;;;;;9.50;6.32;;;;;;;-147.16;100.00;58666.56;7397163;19;20011;-65
2023/08/23 05:55:50;;;;;;;10.48;6.75;;;;;;;-147.16;100.00;58666.56;7396359;19;20015;-65
2023/08/23 05:58:18;;;;;;;8.98;6.25;;;;;;;-147.16;100.00;58666.56;7395807;19;20035;-66
2023/08/23 06:00:47;;;;;;;8.15;5.60;;;;;;;-147.16;100.00;58666.56;7398184;19;20038;-66
2023/08/23 06:03:17;;;;;;;6.85;5.72;;;;;;;-147.16;100.00;58666.56;7395969;19;20014;-66
2023/08/23 06:05:49;;;;;;;7.40;5.70;;;;;;;-147.16;100.00;58666.56;7394960;19;20027;-66
2023/08/23 06:08:17;;;;;;;6.70;5.55;;;;;;;-147.16;100.00;58666.56;7397133;19;20017;-65
2023/08/23 06:10:46;;;;;;;6.63;5.68;;;;;;;-147.16;100.00;58666.56;7397279;19;20022;-65
2023/08/23 06:13:14;;;;;;;9.90;5.57;;;;;;;-147.16;100.00;58666.56;7395862;19;20032;-66
2023/08/23 06:15:43;;;;;;;7.97;5.50;;;;;;;-147.16;100.00;58666.56;7395245;19;20022;-65
2023/08/23 06:18:11;;;;;;;8.02;5.68;;;;;;;-147.16;100.00;58666.56;7396345;19;20015;-66
2023/08/23 06:20:40;;;;;;;5.93;5.32;;;;;;;-147.16;100.00;58666.56;7396350;19;20090;-66
2023/08/23 06:23:11;;;;;;;7.93;5.45;;;;;;;-147.16;100.00;58666.56;7396358;19;20011;-65
2023/08/23 06:25:40;;;;;;;6.57;4.93;;;;;;;-147.16;100.00;58666.56;7396309;19;20502;-66
2023/08/23 06:28:08;;;;;;;10.27;5.00;;;;;;;-147.16;100.00;58666.56;7394849;19;20014;-66
2023/08/23 06:30:38;;;;;;;7.13;5.32;;;;;;;-147.16;100.00;58666.56;7396064;19;20086;-66
2023/08/23 06:33:08;;;;;;;5.93;5.20;;;;;;;-147.16;100.00;58666.56;7395850;19;20015;-66
2023/08/23 06:35:37;;;;;;;8.02;5.28;;;;;;;-147.16;100.00;58666.56;7394089;19;20024;-67
2023/08/23 06:38:05;;;;;;;8.48;5.07;;;;;;;-147.16;100.00;58666.56;7394868;19;20014;-66
2023/08/23 06:40:37;;;;;;;7.30;5.63;;;;;;;-147.16;100.00;58666.56;7396506;19;20078;-66
2023/08/23 06:43:06;;;;;;;7.43;6.00;;;;;;;-147.16;100.00;58666.56;7395695;19;20074;-66
2023/08/23 06:45:34;;;;;;;8.50;5.22;;;;;;;-147.16;100.00;58666.56;7395675;19;20427;-65
2023/08/23 06:48:03;;;;;;;11.18;5.72;;;;;;;-147.16;100.00;58666.56;7395229;19;20078;-66
2023/08/23 06:50:33;;;;;;;6.38;5.75;;;;;;;-147.16;100.00;58666.56;7395310;19;20014;-65
2023/08/23 06:53:01;;;;;;;7.32;5.93;;;;;;;-147.16;100.00;58666.56;7394822;19;20014;-65
2023/08/23 06:55:41;;;;;;;6.07;5.20;;;;;;;-147.16;100.00;58666.56;7395661;19;20094;-64
2023/08/23 06:58:10;;;;;;;7.25;5.85;;;;;;;-147.16;100.00;58666.56;7395352;19;20011;-66
2023/08/23 07:00:39;;;;;;;12.57;6.00;;;;;;;-147.16;100.00;58666.56;7395088;19;20018;-65
2023/08/23 07:03:08;;;;;;;11.07;5.95;;;;;;;-147.16;100.00;58666.56;7394131;19;20010;-65
2023/08/23 07:05:36;;;;;;;11.05;5.82;;;;;;;-147.16;100.00;58666.56;7395778;19;20396;-65
2023/08/23 07:08:05;;;;;;;8.13;5.75;;;;;;;-147.16;100.00;58666.56;7395458;19;20366;-65
2023/08/23 07:10:35;;;;;;;7.25;5.13;;;;;;;-147.16;100.00;58666.56;7393599;19;20014;-66
2023/08/23 07:13:06;;;;;;;7.68;4.93;;;;;;;-147.16;100.00;58666.56;7394696;19;20018;-66
2023/08/23 07:15:35;;;;;;;7.75;5.13;;;;;;;-147.16;100.00;58666.56;7394869;19;20429;-65
2023/08/23 07:18:04;;;;;;;6.28;5.20;;;;;;;-147.16;100.00;58666.56;7394970;19;20391;-65
2023/08/23 07:20:32;;;;;;;6.70;5.20;;;;;;;-147.16;100.00;58666.56;7393743;19;20143;-65
2023/08/23 07:23:01;;;;;;;6.43;4.45;;;;;;;-147.16;100.00;58666.56;7393586;19;20392;-65
2023/08/23 07:25:29;;;;;;;5.97;4.60;;;;;;;-147.16;100.00;58666.56;7393857;19;20019;-66
2023/08/23 07:27:58;;;;;;;10.82;5.07;;;;;;;-147.16;100.00;58666.56;7395080;19;20007;-65
2023/08/23 07:30:29;;;;;;;7.60;4.53;;;;;;;-147.16;100.00;58666.56;7391900;19;20027;-66
2023/08/23 07:32:57;;;;;;;8.25;5.05;;;;;;;-147.16;100.00;58666.56;7394682;19;20090;-65
2023/08/23 07:35:26;;;;;;;8.43;4.70;;;;;;;-147.16;100.00;58666.56;7393562;19;20074;-65
2023/08/23 07:37:54;;;;;;;8.88;4.00;;;;;;;-147.16;100.00;58666.56;7393059;19;20027;-66
2023/08/23 07:40:23;;;;;;;10.40;5.03;;;;;;;-147.16;100.00;58666.56;7389935;19;20083;-66
2023/08/23 07:42:58;;;;;;;8.02;4.18;;;;;;;-147.16;100.00;58666.56;7391841;19;20482;-66
2023/08/23 07:45:29;;;;;;;5.95;3.78;;;;;;;-147.16;100.00;58666.56;7389953;19;20513;-66
2023/08/23 07:47:58;;;;;;;8.02;4.10;;;;;;;-147.16;100.00;58666.56;7393035;19;20010;-66
2023/08/23 07:50:26;;;;;;;8.15;4.07;;;;;;;-147.16;100.00;58666.56;7394360;19;20495;-66
2023/08/23 07:52:56;;;;;;;7.85;4.57;;;;;;;-147.16;100.00;58666.56;7398291;19;20542;-66
2023/08/23 07:55:25;;;;;;;4.97;3.60;;;;;;;-147.16;100.00;58666.56;7398683;19;20493;-66
2023/08/23 07:57:53;;;;;;;6.35;3.33;;;;;;;-147.16;100.00;58666.56;7397958;19;20035;-66
2023/08/23 08:00:22;;;;;;;10.00;4.38;;;;;;;-147.16;100.00;58666.56;7398627;19;20094;-65
2023/08/23 08:02:54;;;;;;;4.60;3.25;;;;;;;-147.16;100.00;58666.56;7398181;19;20427;-65
2023/08/23 08:05:22;;;;;;;7.18;3.85;;;;;;;-147.16;100.00;58666.56;7396712;19;20086;-66
2023/08/23 08:07:51;;;;;;;8.68;3.97;;;;;;;-147.16;100.00;58666.56;7396303;19;20010;-66
2023/08/23 08:10:19;;;;;;;9.60;4.50;;;;;;;-147.16;100.00;58666.56;7397206;19;20498;-66
2023/08/23 08:12:48;;;;;;;8.70;4.13;;;;;;;-147.16;100.00;58666.56;7398098;19;20015;-66
2023/08/23 08:15:16;;;;;;;5.93;4.07;;;;;;;-147.16;100.00;58666.56;7396370;19;20501;-65
2023/08/23 08:17:46;;;;;;;7.82;4.68;;;;;;;-147.16;100.00;58666.56;7399236;19;20014;-67
2023/08/23 08:20:17;;;;;;;8.25;3.85;;;;;;;-147.16;100.00;58666.56;7397403;19;20370;-68
2023/08/23 08:22:46;;;;;;;7.30;3.63;;;;;;;-147.16;100.00;58666.56;7397388;19;20027;-68
2023/08/23 08:25:14;;;;;;;6.10;3.72;;;;;;;-147.16;100.00;58666.56;7398123;19;20025;-67
2023/08/23 08:27:43;;;;;;;5.38;3.20;;;;;;;-147.16;100.00;58666.56;7398009;19;20023;-66
2023/08/23 08:30:12;;;;;;;9.43;3.47;;;;;;;-147.16;100.00;58666.56;7398052;19;20078;-67
2023/08/23 08:32:40;;;;;;;8.57;4.13;;;;;;;-147.16;100.00;58666.56;7395137;19;20506;-68
2023/08/23 08:35:10;;;;;;;6.55;3.90;;;;;;;-147.16;100.00;58666.56;7398004;19;20010;-68
2023/08/23 08:37:47;;;;;;;6.33;3.57;;;;;;;-147.16;100.00;58666.56;6264254;19;22231823;-68
2023/08/23 08:40:16;;;;;;;7.18;4.13;;;;;;;-147.16;100.00;58666.56;7398203;19;20082;-67
2023/08/23 08:42:45;;;;;;;5.63;4.30;;;;;;;-147.16;100.00;58666.56;7399879;19;20030;-68
2023/08/23 08:45:14;;;;;;;11.85;3.80;;;;;;;-147.16;100.00;58666.56;7397924;19;20026;-68
2023/08/23 08:47:43;;;;;;;6.70;3.58;;;;;;;-147.16;100.00;58666.56;7397464;19;20483;-67
2023/08/23 08:50:12;;;;;;;7.50;3.72;;;;;;;-147.16;100.00;58666.56;7399521;19;20017;-69
2023/08/23 08:52:44;;;;;;;8.65;3.00;;;;;;;-147.16;100.00;58666.56;7397013;19;20019;-67
2023/08/23 08:55:15;;;;;;;5.22;3.15;;;;;;;-147.16;100.00;58666.56;7397379;19;20074;-67
2023/08/23 08:57:44;;;;;;;5.30;3.00;;;;;;;-147.16;100.00;58666.56;7396815;19;20506;-68
2023/08/23 09:00:14;;;;;;;6.97;4.10;;;;;;;-147.16;100.00;58666.56;7397288;19;20421;-67
2023/08/23 09:02:45;;;;;;;5.68;3.42;;;;;;;-147.16;100.00;58666.56;7398279;19;20014;-67
2023/08/23 09:05:14;;;;;;;6.63;3.30;;;;;;;-147.16;100.00;58666.56;7399922;19;20074;-67
2023/08/23 09:07:43;;;;;;;5.43;2.97;;;;;;;-147.16;100.00;58666.56;7399600;19;20010;-66
2023/08/23 09:10:16;;;;;;;8.10;3.65;;;;;;;-147.16;100.00;58666.56;7399080;19;20086;-67
2023/08/23 09:12:45;;;;;;;7.60;3.03;;;;;;;-147.16;100.00;58666.56;7398935;19;20035;-68
2023/08/23 09:15:13;;;;;;;4.95;2.65;;;;;;;-147.16;100.00;58666.56;7396370;19;20441;-67
2023/08/23 09:17:42;;;;;;;8.07;3.30;;;;;;;-147.16;100.00;58666.56;7397336;19;20006;-68
2023/08/23 09:20:12;;;;;;;4.32;2.85;;;;;;;-147.16;100.00;58666.56;7397327;19;20409;-68
2023/08/23 09:22:40;;;;;;;4.75;2.83;;;;;;;-147.16;100.00;58666.56;7398944;19;20014;-68
2023/08/23 09:25:10;;;;;;;4.85;2.72;;;;;;;-147.16;100.00;58666.56;7399313;19;20097;-68
2023/08/23 09:27:42;;;;;;;4.07;2.47;;;;;;;-147.16;100.00;58666.56;7399139;19;20010;-69
2023/08/23 09:30:11;;;;;;;4.10;2.58;;;;;;;-147.16;100.00;58666.56;7399023;19;20045;-69
2023/08/23 09:32:40;;;;;;;3.22;2.00;;;;;;;-147.16;100.00;58666.56;7398616;19;20070;-66
2023/08/23 09:35:12;;;;;;;6.90;2.45;;;;;;;-147.16;100.00;58666.56;7398000;19;20384;-66
2023/08/23 09:37:50;;;;;;;3.88;1.90;;;;;;;-147.16;100.00;58666.56;7396074;19;20028;-67
2023/08/23 09:40:20;;;;;;;5.60;2.10;;;;;;;-147.16;100.00;58666.56;7397692;19;20045;-67
2023/08/23 09:42:52;;;;;;;3.30;1.73;;;;;;;-147.16;100.00;58666.56;7398507;19;20090;-68
2023/08/23 09:45:23;;;;;;;5.57;2.33;;;;;;;-147.16;100.00;58666.56;7396322;19;20014;-67
2023/08/23 09:47:54;;;;;;;5.20;2.05;;;;;;;-147.16;100.00;58666.56;7396794;19;20021;-67
2023/08/23 09:50:24;;;;;;;5.50;1.95;;;;;;;-147.16;100.00;58666.56;7396985;19;20021;-68
2023/08/23 09:52:54;;;;;;;5.10;2.00;;;;;;;-147.16;100.00;58666.56;7396001;19;20031;-67
2023/08/23 09:55:25;;;;;;;5.28;2.45;;;;;;;-147.16;100.00;58666.56;7397827;19;20477;-69
2023/08/23 09:57:57;;;;;;;3.90;1.95;;;;;;;-147.16;100.00;58666.56;7399020;19;20013;-67
2023/08/23 10:00:26;;;;;;;3.92;1.98;;;;;;;-147.16;100.00;58666.56;7396957;19;20079;-68
2023/08/23 10:02:56;;;;;;;4.38;1.83;;;;;;;-147.16;100.00;58666.56;7396758;19;20010;-68
2023/08/23 10:05:25;;;;;;;4.90;1.92;;;;;;;-147.16;100.00;58666.56;7395041;19;20006;-68
2023/08/23 10:07:55;;;;;;;3.97;1.65;;;;;;;-147.16;100.00;58666.56;7396100;19;20366;-69
2023/08/23 10:10:25;;;;;;;4.68;2.20;;;;;;;-147.16;100.00;58666.56;7395266;19;20010;-67
2023/08/23 10:13:01;;;;;;;6.43;1.80;;;;;;;-147.16;100.00;58666.56;7392595;19;20078;-66
2023/08/23 10:15:34;;;;;;;3.90;1.80;;;;;;;-147.16;100.00;58666.56;7397487;19;20031;-68
2023/08/23 10:18:06;;;;;;;4.53;1.83;;;;;;;-147.16;100.00;58666.56;7396640;19;20018;-67
2023/08/23 10:20:36;;;;;;;2.45;1.90;;;;;;;-147.16;100.00;58666.56;7395367;19;20070;-67
2023/08/23 10:23:12;;;;;;;3.20;1.98;;;;;;;-147.16;100.00;58666.56;7396865;19;20029;-66
2023/08/23 10:25:41;;;;;;;5.10;2.03;;;;;;;-147.16;100.00;58666.56;7397543;19;20020;-67
2023/08/23 10:28:16;;;;;;;5.28;1.70;;;;;;;-147.16;100.00;58666.56;7396732;19;20127;-67
2023/08/23 10:30:46;;;;;;;4.78;1.60;;;;;;;-147.16;100.00;58666.56;7396482;19;20423;-67
2023/08/23 10:33:16;;;;;;;3.53;1.55;;;;;;;-147.16;100.00;58666.56;7395196;19;20021;-67
2023/08/23 10:35:46;;;;;;;3.22;1.60;;;;;;;-147.16;100.00;58666.56;7393822;19;20011;-68
2023/08/23 10:38:15;;;;;;;2.40;1.80;;;;;;;-147.16;100.00;58666.56;7396004;19;20482;-68
2023/08/23 10:40:49;;;;;;;3.22;1.50;;;;;;;-147.16;100.00;58666.56;7394677;19;20130;-68
2023/08/23 10:43:22;;;;;;;3.08;1.60;;;;;;;-147.16;100.00;58666.56;7395930;19;20078;-68
2023/08/23 10:45:53;;;;;;;3.80;1.83;;;;;;;-147.16;100.00;58666.56;7396596;19;20086;-67
2023/08/23 10:48:23;;;;;;;2.58;1.52;;;;;;;-147.16;100.00;58666.56;7396131;19;20023;-67
2023/08/23 10:50:53;;;;;;;4.40;1.90;;;;;;;-147.16;100.00;58666.56;7395462;19;20496;-67
2023/08/23 10:53:21;;;;;;;4.78;1.58;;;;;;;-147.16;100.00;58666.56;7394046;19;20023;-68
2023/08/23 10:55:50;;;;;;;5.05;1.77;;;;;;;-147.16;100.00;58666.56;7393619;19;20018;-67
2023/08/23 10:58:21;;;;;;;4.22;1.73;;;;;;;-147.16;100.00;58666.56;7395337;19;20474;-67
2023/08/23 11:00:53;;;;;;;3.47;1.80;;;;;;;-147.16;100.00;58666.56;7394992;19;20336;-67
2023/08/23 11:03:21;;;;;;;4.22;1.60;;;;;;;-147.16;100.00;58666.56;7394459;19;20010;-68
2023/08/23 11:05:50;;;;;;;6.60;2.08;;;;;;;-147.16;100.00;58666.56;7395433;19;20010;-67
2023/08/23 11:08:19;;;;;;;3.90;1.52;;;;;;;-147.16;100.00;58666.56;7393394;19;20023;-67
2023/08/23 11:10:48;;;;;;;3.08;1.52;;;;;;;-147.16;100.00;58666.56;7395017;19;20019;-66
2023/08/23 11:13:16;;;;;;;3.13;1.60;;;;;;;-147.16;100.00;58666.56;7394837;19;20018;-66
2023/08/23 11:15:47;;;;;;;3.72;1.30;;;;;;;-147.16;100.00;58666.56;7395745;19;20014;-67
2023/08/23 11:18:16;;;;;;;3.67;1.88;;;;;;;-147.16;100.00;58666.56;7394926;19;20035;-68